Murree Weather



Murree's Current Weather

Temprature 33o light rain

light rain

Rain: 0 %

Min Temprature33o
Max Temprature33o
Humidity70
Wind Speed3.1 m/h
Sun Rise05:26:52
Sun Set18:55:54
Current Time: 13-Aug-2020 18:27:19
Lat/Lon: 33.91, 73.39




Murree's Geo Location



Murree's Weather Forecast

Time Overall Temp Min Temp Max Temp Humidity Wind Speed Rain
13-Aug-2020 (Thu)
20:00:00 light rain 25.790 18.230 25.790 85 1.39 m/h 26 %
23:00:00 light rain 20.290 16.790 20.290 94 1.13 m/h 45 %
14-Aug-2020 (Fri)
02:00:00 light rain 16.970 15.870 16.970 99 1.66 m/h 113 %
05:00:00 light rain 15.480 15.340 15.480 100 0.95 m/h 145 %
08:00:00 light rain 19.040 19.040 19.040 100 0.44 m/h 144 %
11:00:00 light rain 20.870 20.870 20.870 95 2.77 m/h 255 %
14:00:00 light rain 21.740 21.740 21.740 90 2.02 m/h 236 %
17:00:00 light rain 20.830 20.830 20.830 96 0.43 m/h 289 %
20:00:00 light rain 17.380 17.380 17.380 100 1.17 m/h 21 %
23:00:00 light rain 16.940 16.940 16.940 100 1.36 m/h 35 %
15-Aug-2020 (Sat)
02:00:00 light rain 16.280 16.280 16.280 100 2.09 m/h 145 %
05:00:00 light rain 15.540 15.540 15.540 100 1.59 m/h 94 %
08:00:00 light rain 19.170 19.170 19.170 100 0.58 m/h 24 %
11:00:00 moderate rain 21.140 21.140 21.140 93 2.09 m/h 335 %
14:00:00 light rain 22.470 22.470 22.470 87 2.28 m/h 227 %
17:00:00 light rain 22.200 22.200 22.200 86 0.59 m/h 126 %
20:00:00 light rain 18.290 18.290 18.290 100 1.33 m/h 12 %
23:00:00 clear sky 17.440 17.440 17.440 100 1.88 m/h 0 %
16-Aug-2020 (Sun)
02:00:00 clear sky 16.880 16.880 16.880 100 1.97 m/h 0 %
05:00:00 few clouds 16.030 16.030 16.030 100 0.9 m/h 0 %
08:00:00 light rain 19.640 19.640 19.640 99 0.68 m/h 23 %
11:00:00 light rain 21.710 21.710 21.710 94 1.78 m/h 242 %
14:00:00 moderate rain 22.720 22.720 22.720 90 2.36 m/h 313 %
17:00:00 light rain 21.810 21.810 21.810 97 1.8 m/h 96 %
20:00:00 light rain 18.490 18.490 18.490 100 0.9 m/h 36 %
23:00:00 clear sky 17.770 17.770 17.770 100 1.25 m/h 0 %
17-Aug-2020 (Mon)
02:00:00 light rain 17.380 17.380 17.380 100 0.65 m/h 13 %
05:00:00 light rain 16.940 16.940 16.940 100 0.61 m/h 48 %
08:00:00 moderate rain 19.470 19.470 19.470 100 1.78 m/h 329 %
11:00:00 moderate rain 21.340 21.340 21.340 98 1.86 m/h 807 %
14:00:00 moderate rain 21.890 21.890 21.890 95 2.48 m/h 852 %
17:00:00 light rain 21.490 21.490 21.490 94 1.44 m/h 181 %
20:00:00 few clouds 18.020 18.020 18.020 100 1.29 m/h 0 %
23:00:00 clear sky 17.510 17.510 17.510 100 1.62 m/h 0 %
18-Aug-2020 (Tue)
02:00:00 clear sky 16.890 16.890 16.890 100 1.34 m/h 0 %
05:00:00 light rain 16.140 16.140 16.140 100 1.32 m/h 178 %
08:00:00 moderate rain 18.980 18.980 18.980 100 0.48 m/h 1,027 %
11:00:00 moderate rain 21.510 21.510 21.510 94 0.58 m/h 893 %
14:00:00 moderate rain 21.920 21.920 21.920 95 2.41 m/h 780 %
17:00:00 light rain 21.200 21.200 21.200 98 1.69 m/h 192 %

Famous Cities (60)